sensor_id;sensor_type;location;lat;lon;timestamp;temperature;humidity
8231;DHT22;4156;50.908;6.974;2023-07-13T00:00:18;22.60;99.90
8231;DHT22;4156;50.908;6.974;2023-07-13T00:02:43;22.50;99.90
8231;DHT22;4156;50.908;6.974;2023-07-13T00:05:09;22.60;99.90
8231;DHT22;4156;50.908;6.974;2023-07-13T00:07:36;22.60;99.90
8231;DHT22;4156;50.908;6.974;2023-07-13T00:10:02;22.50;99.90
8231;DHT22;4156;50.908;6.974;2023-07-13T00:12:34;22.50;99.90
8231;DHT22;4156;50.908;6.974;2023-07-13T00:15:02;22.50;99.90
8231;DHT22;4156;50.908;6.974;2023-07-13T00:17:29;22.40;99.90
8231;DHT22;4156;50.908;6.974;2023-07-13T00:19:56;22.40;99.90
8231;DHT22;4156;50.908;6.974;2023-07-13T00:22:22;22.30;99.90
8231;DHT22;4156;50.908;6.974;2023-07-13T00:24:51;22.30;99.90
8231;DHT22;4156;50.908;6.974;2023-07-13T00:27:18;22.30;99.90
8231;DHT22;4156;50.908;6.974;2023-07-13T00:29:43;22.20;99.90
8231;DHT22;4156;50.908;6.974;2023-07-13T00:32:10;22.20;99.90
8231;DHT22;4156;50.908;6.974;2023-07-13T00:34:37;22.20;99.90
8231;DHT22;4156;50.908;6.974;2023-07-13T00:37:03;22.10;99.90
8231;DHT22;4156;50.908;6.974;2023-07-13T00:39:28;22.10;99.90
8231;DHT22;4156;50.908;6.974;2023-07-13T00:41:54;22.00;99.90
8231;DHT22;4156;50.908;6.974;2023-07-13T00:44:20;22.00;99.90
8231;DHT22;4156;50.908;6.974;2023-07-13T00:46:48;22.00;99.90
8231;DHT22;4156;50.908;6.974;2023-07-13T00:49:19;21.90;99.90
8231;DHT22;4156;50.908;6.974;2023-07-13T00:51:50;21.90;99.90
8231;DHT22;4156;50.908;6.974;2023-07-13T00:54:27;21.90;99.90
8231;DHT22;4156;50.908;6.974;2023-07-13T00:56:58;21.90;99.90
8231;DHT22;4156;50.908;6.974;2023-07-13T00:59:24;21.90;99.90
8231;DHT22;4156;50.908;6.974;2023-07-13T01:01:50;21.80;99.90
8231;DHT22;4156;50.908;6.974;2023-07-13T01:04:17;21.80;99.90
8231;DHT22;4156;50.908;6.974;2023-07-13T01:06:43;21.80;99.90
8231;DHT22;4156;50.908;6.974;2023-07-13T01:09:10;21.70;99.90
8231;DHT22;4156;50.908;6.974;2023-07-13T01:11:36;21.70;99.90
8231;DHT22;4156;50.908;6.974;2023-07-13T01:14:02;21.70;99.90
8231;DHT22;4156;50.908;6.974;2023-07-13T01:16:32;21.70;99.90
8231;DHT22;4156;50.908;6.974;2023-07-13T01:18:59;21.70;99.90
8231;DHT22;4156;50.908;6.974;2023-07-13T01:21:28;21.70;99.90
8231;DHT22;4156;50.908;6.974;2023-07-13T01:23:54;21.60;99.90
8231;DHT22;4156;50.908;6.974;2023-07-13T01:26:20;21.60;99.90
8231;DHT22;4156;50.908;6.974;2023-07-13T01:28:45;21.60;99.90
8231;DHT22;4156;50.908;6.974;2023-07-13T01:31:11;21.60;99.90
8231;DHT22;4156;50.908;6.974;2023-07-13T01:33:39;21.50;99.90
8231;DHT22;4156;50.908;6.974;2023-07-13T01:36:06;21.50;99.90
8231;DHT22;4156;50.908;6.974;2023-07-13T01:38:32;21.40;99.90
8231;DHT22;4156;50.908;6.974;2023-07-13T01:40:58;21.40;99.90
8231;DHT22;4156;50.908;6.974;2023-07-13T01:43:24;21.40;99.90
8231;DHT22;4156;50.908;6.974;2023-07-13T01:45:50;21.40;99.90
8231;DHT22;4156;50.908;6.974;2023-07-13T01:48:15;21.40;99.90
8231;DHT22;4156;50.908;6.974;2023-07-13T01:50:41;21.30;99.90
8231;DHT22;4156;50.908;6.974;2023-07-13T01:53:07;21.30;99.90
8231;DHT22;4156;50.908;6.974;2023-07-13T01:55:34;21.20;99.90
8231;DHT22;4156;50.908;6.974;2023-07-13T01:57:59;21.20;99.90
8231;DHT22;4156;50.908;6.974;2023-07-13T02:00:25;21.20;99.90
8231;DHT22;4156;50.908;6.974;2023-07-13T02:02:51;21.10;99.90
8231;DHT22;4156;50.908;6.974;2023-07-13T02:05:16;21.10;99.90
8231;DHT22;4156;50.908;6.974;2023-07-13T02:07:42;21.00;99.90
8231;DHT22;4156;50.908;6.974;2023-07-13T02:10:09;20.90;99.90
8231;DHT22;4156;50.908;6.974;2023-07-13T02:12:35;20.90;99.90
8231;DHT22;4156;50.908;6.974;2023-07-13T02:15:00;20.90;99.90
8231;DHT22;4156;50.908;6.974;2023-07-13T02:17:26;20.90;99.90
8231;DHT22;4156;50.908;6.974;2023-07-13T02:19:52;20.80;99.90
8231;DHT22;4156;50.908;6.974;2023-07-13T02:22:18;20.80;99.90
8231;DHT22;4156;50.908;6.974;2023-07-13T02:24:43;20.80;99.90
8231;DHT22;4156;50.908;6.974;2023-07-13T02:27:09;20.70;99.90
8231;DHT22;4156;50.908;6.974;2023-07-13T02:29:34;20.70;99.90
8231;DHT22;4156;50.908;6.974;2023-07-13T02:32:00;20.60;99.90
8231;DHT22;4156;50.908;6.974;2023-07-13T02:34:25;20.60;99.90
8231;DHT22;4156;50.908;6.974;2023-07-13T02:36:51;20.60;99.90
8231;DHT22;4156;50.908;6.974;2023-07-13T02:39:16;20.50;99.90
8231;DHT22;4156;50.908;6.974;2023-07-13T02:41:42;20.50;99.90
8231;DHT22;4156;50.908;6.974;2023-07-13T02:44:07;20.50;99.90
8231;DHT22;4156;50.908;6.974;2023-07-13T02:46:35;20.50;99.90
8231;DHT22;4156;50.908;6.974;2023-07-13T02:49:01;20.50;99.90
8231;DHT22;4156;50.908;6.974;2023-07-13T02:51:27;20.50;99.90
8231;DHT22;4156;50.908;6.974;2023-07-13T02:53:53;20.40;99.90
8231;DHT22;4156;50.908;6.974;2023-07-13T02:56:27;20.40;99.90
8231;DHT22;4156;50.908;6.974;2023-07-13T02:58:53;20.40;99.90
8231;DHT22;4156;50.908;6.974;2023-07-13T03:01:20;20.40;99.90
8231;DHT22;4156;50.908;6.974;2023-07-13T03:03:46;20.40;99.90
8231;DHT22;4156;50.908;6.974;2023-07-13T03:06:12;20.40;99.90
8231;DHT22;4156;50.908;6.974;2023-07-13T03:08:39;20.40;99.90
8231;DHT22;4156;50.908;6.974;2023-07-13T03:11:07;20.40;99.90
8231;DHT22;4156;50.908;6.974;2023-07-13T03:13:33;20.40;99.90
8231;DHT22;4156;50.908;6.974;2023-07-13T03:16:00;20.40;99.90
8231;DHT22;4156;50.908;6.974;2023-07-13T03:18:27;20.50;99.90
8231;DHT22;4156;50.908;6.974;2023-07-13T03:20:52;20.50;99.90
8231;DHT22;4156;50.908;6.974;2023-07-13T03:23:19;20.40;99.90
8231;DHT22;4156;50.908;6.974;2023-07-13T03:25:45;20.40;99.90
8231;DHT22;4156;50.908;6.974;2023-07-13T03:28:11;20.40;99.90
8231;DHT22;4156;50.908;6.974;2023-07-13T03:30:37;20.30;99.90
8231;DHT22;4156;50.908;6.974;2023-07-13T03:33:03;20.30;99.90
8231;DHT22;4156;50.908;6.974;2023-07-13T03:35:29;20.30;99.90
8231;DHT22;4156;50.908;6.974;2023-07-13T03:37:55;20.30;99.90
8231;DHT22;4156;50.908;6.974;2023-07-13T03:40:20;20.30;99.90
8231;DHT22;4156;50.908;6.974;2023-07-13T03:42:46;20.30;99.90
8231;DHT22;4156;50.908;6.974;2023-07-13T03:45:12;20.30;99.90
8231;DHT22;4156;50.908;6.974;2023-07-13T03:47:37;20.30;99.90
8231;DHT22;4156;50.908;6.974;2023-07-13T03:50:03;20.30;99.90
8231;DHT22;4156;50.908;6.974;2023-07-13T03:52:29;20.30;99.90
8231;DHT22;4156;50.908;6.974;2023-07-13T03:54:54;20.30;99.90
8231;DHT22;4156;50.908;6.974;2023-07-13T03:57:20;20.20;99.90
8231;DHT22;4156;50.908;6.974;2023-07-13T03:59:45;20.20;99.90
8231;DHT22;4156;50.908;6.974;2023-07-13T04:02:11;20.20;99.90
8231;DHT22;4156;50.908;6.974;2023-07-13T04:04:37;20.20;99.90
8231;DHT22;4156;50.908;6.974;2023-07-13T04:07:04;20.20;99.90
8231;DHT22;4156;50.908;6.974;2023-07-13T04:09:29;20.20;99.90
8231;DHT22;4156;50.908;6.974;2023-07-13T04:11:55;20.10;99.90
8231;DHT22;4156;50.908;6.974;2023-07-13T04:14:20;20.10;99.90
8231;DHT22;4156;50.908;6.974;2023-07-13T04:16:46;20.10;99.90
8231;DHT22;4156;50.908;6.974;2023-07-13T04:19:13;20.10;99.90
8231;DHT22;4156;50.908;6.974;2023-07-13T04:21:38;20.10;99.90
8231;DHT22;4156;50.908;6.974;2023-07-13T04:24:04;20.20;99.90
8231;DHT22;4156;50.908;6.974;2023-07-13T04:26:30;20.20;99.90
8231;DHT22;4156;50.908;6.974;2023-07-13T04:28:56;20.20;99.90
8231;DHT22;4156;50.908;6.974;2023-07-13T04:31:21;20.30;99.90
8231;DHT22;4156;50.908;6.974;2023-07-13T04:33:48;20.40;99.90
8231;DHT22;4156;50.908;6.974;2023-07-13T04:36:15;20.40;99.90
8231;DHT22;4156;50.908;6.974;2023-07-13T04:38:40;20.50;99.90
8231;DHT22;4156;50.908;6.974;2023-07-13T04:41:07;20.50;99.90
8231;DHT22;4156;50.908;6.974;2023-07-13T04:43:33;20.50;99.90
8231;DHT22;4156;50.908;6.974;2023-07-13T04:46:11;20.50;99.90
8231;DHT22;4156;50.908;6.974;2023-07-13T04:48:37;20.60;99.90
8231;DHT22;4156;50.908;6.974;2023-07-13T04:51:03;20.60;99.90
8231;DHT22;4156;50.908;6.974;2023-07-13T04:53:30;20.70;99.90
8231;DHT22;4156;50.908;6.974;2023-07-13T04:55:56;20.70;99.90
8231;DHT22;4156;50.908;6.974;2023-07-13T04:58:23;20.70;99.90
8231;DHT22;4156;50.908;6.974;2023-07-13T05:00:49;20.90;99.90
8231;DHT22;4156;50.908;6.974;2023-07-13T05:03:14;21.00;99.90
8231;DHT22;4156;50.908;6.974;2023-07-13T05:05:40;21.10;99.90
8231;DHT22;4156;50.908;6.974;2023-07-13T05:08:05;21.10;99.90
8231;DHT22;4156;50.908;6.974;2023-07-13T05:10:32;21.10;99.90
8231;DHT22;4156;50.908;6.974;2023-07-13T05:12:58;21.10;99.90
8231;DHT22;4156;50.908;6.974;2023-07-13T05:15:24;21.20;99.90
8231;DHT22;4156;50.908;6.974;2023-07-13T05:17:50;21.20;99.90
8231;DHT22;4156;50.908;6.974;2023-07-13T05:20:17;21.20;99.90
8231;DHT22;4156;50.908;6.974;2023-07-13T05:22:44;21.20;99.90
8231;DHT22;4156;50.908;6.974;2023-07-13T05:25:09;21.30;99.90
8231;DHT22;4156;50.908;6.974;2023-07-13T05:27:35;21.30;99.90
8231;DHT22;4156;50.908;6.974;2023-07-13T05:30:02;21.30;99.90
8231;DHT22;4156;50.908;6.974;2023-07-13T05:32:28;21.30;99.90
8231;DHT22;4156;50.908;6.974;2023-07-13T05:34:53;21.30;99.90
8231;DHT22;4156;50.908;6.974;2023-07-13T05:37:19;21.40;99.90
8231;DHT22;4156;50.908;6.974;2023-07-13T05:39:44;21.50;99.90
8231;DHT22;4156;50.908;6.974;2023-07-13T05:42:10;21.50;99.90
8231;DHT22;4156;50.908;6.974;2023-07-13T05:44:35;21.60;99.90
8231;DHT22;4156;50.908;6.974;2023-07-13T05:47:01;21.70;99.90
8231;DHT22;4156;50.908;6.974;2023-07-13T05:49:26;21.70;99.90
8231;DHT22;4156;50.908;6.974;2023-07-13T05:51:52;21.70;99.90
8231;DHT22;4156;50.908;6.974;2023-07-13T05:54:18;21.70;99.90
8231;DHT22;4156;50.908;6.974;2023-07-13T05:56:43;21.80;99.90
8231;DHT22;4156;50.908;6.974;2023-07-13T05:59:09;21.80;99.90
8231;DHT22;4156;50.908;6.974;2023-07-13T06:01:35;21.90;99.90
8231;DHT22;4156;50.908;6.974;2023-07-13T06:04:00;21.90;99.90
8231;DHT22;4156;50.908;6.974;2023-07-13T06:06:26;22.00;99.90
8231;DHT22;4156;50.908;6.974;2023-07-13T06:08:51;22.00;99.90
8231;DHT22;4156;50.908;6.974;2023-07-13T06:11:24;22.00;99.90
8231;DHT22;4156;50.908;6.974;2023-07-13T06:13:51;22.00;99.90
8231;DHT22;4156;50.908;6.974;2023-07-13T06:16:17;22.00;99.90
8231;DHT22;4156;50.908;6.974;2023-07-13T06:18:43;22.00;99.90
8231;DHT22;4156;50.908;6.974;2023-07-13T06:21:14;22.00;99.90
8231;DHT22;4156;50.908;6.974;2023-07-13T06:23:40;22.00;99.90
8231;DHT22;4156;50.908;6.974;2023-07-13T06:26:06;22.00;99.90
8231;DHT22;4156;50.908;6.974;2023-07-13T06:28:32;22.00;99.90
8231;DHT22;4156;50.908;6.974;2023-07-13T06:30:59;22.10;99.90
8231;DHT22;4156;50.908;6.974;2023-07-13T06:33:25;22.10;99.90
8231;DHT22;4156;50.908;6.974;2023-07-13T06:35:51;22.10;99.90
8231;DHT22;4156;50.908;6.974;2023-07-13T06:38:16;22.20;99.90
8231;DHT22;4156;50.908;6.974;2023-07-13T06:40:42;22.20;99.90
8231;DHT22;4156;50.908;6.974;2023-07-13T06:43:07;22.20;99.90
8231;DHT22;4156;50.908;6.974;2023-07-13T06:45:40;22.20;99.90
8231;DHT22;4156;50.908;6.974;2023-07-13T06:48:06;22.30;99.90
8231;DHT22;4156;50.908;6.974;2023-07-13T06:50:33;22.30;99.90
8231;DHT22;4156;50.908;6.974;2023-07-13T06:52:59;22.30;99.90
8231;DHT22;4156;50.908;6.974;2023-07-13T06:55:25;22.30;99.90
8231;DHT22;4156;50.908;6.974;2023-07-13T06:57:51;22.30;99.90
8231;DHT22;4156;50.908;6.974;2023-07-13T07:00:16;22.30;99.90
8231;DHT22;4156;50.908;6.974;2023-07-13T07:02:42;22.40;99.90
8231;DHT22;4156;50.908;6.974;2023-07-13T07:05:07;22.40;99.90
8231;DHT22;4156;50.908;6.974;2023-07-13T07:07:33;22.40;99.90
8231;DHT22;4156;50.908;6.974;2023-07-13T07:09:58;22.30;99.90
8231;DHT22;4156;50.908;6.974;2023-07-13T07:12:24;22.30;99.90
8231;DHT22;4156;50.908;6.974;2023-07-13T07:14:49;22.40;99.90
8231;DHT22;4156;50.908;6.974;2023-07-13T07:17:15;22.30;99.90
8231;DHT22;4156;50.908;6.974;2023-07-13T07:19:40;22.30;99.90
8231;DHT22;4156;50.908;6.974;2023-07-13T07:22:07;22.40;99.90
8231;DHT22;4156;50.908;6.974;2023-07-13T07:24:32;22.40;99.90
8231;DHT22;4156;50.908;6.974;2023-07-13T07:26:58;22.40;99.90
8231;DHT22;4156;50.908;6.974;2023-07-13T07:29:23;22.40;99.90
8231;DHT22;4156;50.908;6.974;2023-07-13T07:31:51;22.40;99.90
8231;DHT22;4156;50.908;6.974;2023-07-13T07:34:17;22.50;99.90
8231;DHT22;4156;50.908;6.974;2023-07-13T07:36:42;22.40;99.90
8231;DHT22;4156;50.908;6.974;2023-07-13T07:39:08;22.40;99.90
8231;DHT22;4156;50.908;6.974;2023-07-13T07:41:33;22.40;99.90
8231;DHT22;4156;50.908;6.974;2023-07-13T07:43:59;22.40;99.90
8231;DHT22;4156;50.908;6.974;2023-07-13T07:46:24;22.40;99.90
8231;DHT22;4156;50.908;6.974;2023-07-13T07:48:50;22.40;99.90
8231;DHT22;4156;50.908;6.974;2023-07-13T07:51:15;22.50;99.90
8231;DHT22;4156;50.908;6.974;2023-07-13T07:53:41;22.50;99.90
8231;DHT22;4156;50.908;6.974;2023-07-13T07:56:07;22.40;99.90
8231;DHT22;4156;50.908;6.974;2023-07-13T07:58:32;22.50;99.90
8231;DHT22;4156;50.908;6.974;2023-07-13T08:01:07;22.50;99.90
8231;DHT22;4156;50.908;6.974;2023-07-13T08:03:32;22.50;99.90
8231;DHT22;4156;50.908;6.974;2023-07-13T08:05:58;22.50;99.90
8231;DHT22;4156;50.908;6.974;2023-07-13T08:08:24;22.50;99.90
8231;DHT22;4156;50.908;6.974;2023-07-13T08:10:49;22.60;99.90
8231;DHT22;4156;50.908;6.974;2023-07-13T08:13:15;22.60;99.90
8231;DHT22;4156;50.908;6.974;2023-07-13T08:15:40;22.60;99.90
8231;DHT22;4156;50.908;6.974;2023-07-13T08:18:06;22.60;99.90
8231;DHT22;4156;50.908;6.974;2023-07-13T08:20:37;22.60;99.90
8231;DHT22;4156;50.908;6.974;2023-07-13T08:23:03;22.70;99.90
8231;DHT22;4156;50.908;6.974;2023-07-13T08:25:28;22.60;99.90
8231;DHT22;4156;50.908;6.974;2023-07-13T08:27:54;22.70;99.90
8231;DHT22;4156;50.908;6.974;2023-07-13T08:30:19;22.80;99.90
8231;DHT22;4156;50.908;6.974;2023-07-13T08:32:45;22.70;99.90
8231;DHT22;4156;50.908;6.974;2023-07-13T08:35:10;22.70;99.90
8231;DHT22;4156;50.908;6.974;2023-07-13T08:37:36;22.80;99.90
8231;DHT22;4156;50.908;6.974;2023-07-13T08:40:01;22.80;99.90
8231;DHT22;4156;50.908;6.974;2023-07-13T08:42:40;22.80;99.90
8231;DHT22;4156;50.908;6.974;2023-07-13T08:45:23;22.80;99.90
8231;DHT22;4156;50.908;6.974;2023-07-13T08:48:11;22.90;99.90
8231;DHT22;4156;50.908;6.974;2023-07-13T08:51:00;22.90;99.90
8231;DHT22;4156;50.908;6.974;2023-07-13T08:53:41;22.90;99.90
8231;DHT22;4156;50.908;6.974;2023-07-13T08:56:14;23.00;99.90
8231;DHT22;4156;50.908;6.974;2023-07-13T08:58:41;23.00;99.90
8231;DHT22;4156;50.908;6.974;2023-07-13T09:02:25;23.00;99.90
8231;DHT22;4156;50.908;6.974;2023-07-13T09:04:26;23.10;99.90
8231;DHT22;4156;50.908;6.974;2023-07-13T09:07:04;23.10;99.90
8231;DHT22;4156;50.908;6.974;2023-07-13T09:12:14;23.10;99.90
8231;DHT22;4156;50.908;6.974;2023-07-13T09:14:49;23.10;99.90
8231;DHT22;4156;50.908;6.974;2023-07-13T09:17:22;23.20;99.90
8231;DHT22;4156;50.908;6.974;2023-07-13T09:20:13;23.20;99.90
8231;DHT22;4156;50.908;6.974;2023-07-13T09:22:42;23.20;99.90
8231;DHT22;4156;50.908;6.974;2023-07-13T09:25:29;23.20;99.90
8231;DHT22;4156;50.908;6.974;2023-07-13T09:27:59;23.20;99.90
8231;DHT22;4156;50.908;6.974;2023-07-13T09:30:46;23.20;99.90
8231;DHT22;4156;50.908;6.974;2023-07-13T09:33:16;23.30;99.90
8231;DHT22;4156;50.908;6.974;2023-07-13T09:35:42;23.30;99.90
8231;DHT22;4156;50.908;6.974;2023-07-13T09:38:16;23.30;99.90
8231;DHT22;4156;50.908;6.974;2023-07-13T09:43:36;23.30;99.90
8231;DHT22;4156;50.908;6.974;2023-07-13T09:46:01;23.40;99.90
8231;DHT22;4156;50.908;6.974;2023-07-13T09:48:36;23.40;99.90
8231;DHT22;4156;50.908;6.974;2023-07-13T09:51:14;23.40;99.90
8231;DHT22;4156;50.908;6.974;2023-07-13T09:53:42;23.40;99.90
8231;DHT22;4156;50.908;6.974;2023-07-13T09:56:27;23.40;99.90
8231;DHT22;4156;50.908;6.974;2023-07-13T09:58:53;23.40;99.90
8231;DHT22;4156;50.908;6.974;2023-07-13T10:01:51;23.50;99.90
8231;DHT22;4156;50.908;6.974;2023-07-13T10:04:26;23.40;99.90
8231;DHT22;4156;50.908;6.974;2023-07-13T10:07:09;23.40;99.90
8231;DHT22;4156;50.908;6.974;2023-07-13T10:10:26;23.40;99.90
8231;DHT22;4156;50.908;6.974;2023-07-13T10:13:42;23.40;99.90
8231;DHT22;4156;50.908;6.974;2023-07-13T10:16:15;23.40;99.90
8231;DHT22;4156;50.908;6.974;2023-07-13T10:19:22;23.40;99.90
8231;DHT22;4156;50.908;6.974;2023-07-13T10:22:02;23.50;99.90
8231;DHT22;4156;50.908;6.974;2023-07-13T10:24:51;23.50;99.90
8231;DHT22;4156;50.908;6.974;2023-07-13T10:27:40;23.50;99.90
8231;DHT22;4156;50.908;6.974;2023-07-13T10:30:22;23.50;99.90
8231;DHT22;4156;50.908;6.974;2023-07-13T10:32:57;23.50;99.90
8231;DHT22;4156;50.908;6.974;2023-07-13T10:35:30;23.50;99.90
8231;DHT22;4156;50.908;6.974;2023-07-13T10:38:06;23.50;99.90
8231;DHT22;4156;50.908;6.974;2023-07-13T10:40:45;23.50;99.90
8231;DHT22;4156;50.908;6.974;2023-07-13T10:43:48;23.50;99.90
8231;DHT22;4156;50.908;6.974;2023-07-13T10:46:21;23.50;99.90
8231;DHT22;4156;50.908;6.974;2023-07-13T10:48:55;23.60;99.90
8231;DHT22;4156;50.908;6.974;2023-07-13T10:51:34;23.60;99.90
8231;DHT22;4156;50.908;6.974;2023-07-13T10:54:34;23.60;99.90
8231;DHT22;4156;50.908;6.974;2023-07-13T10:57:20;23.60;99.90
8231;DHT22;4156;50.908;6.974;2023-07-13T11:00:20;23.60;99.90
8231;DHT22;4156;50.908;6.974;2023-07-13T11:03:00;23.60;99.90
8231;DHT22;4156;50.908;6.974;2023-07-13T11:05:35;23.70;99.90
8231;DHT22;4156;50.908;6.974;2023-07-13T11:08:32;23.70;99.90
8231;DHT22;4156;50.908;6.974;2023-07-13T11:11:34;23.70;99.90
8231;DHT22;4156;50.908;6.974;2023-07-13T11:22:48;23.70;99.90
8231;DHT22;4156;50.908;6.974;2023-07-13T11:25:30;23.70;99.90
8231;DHT22;4156;50.908;6.974;2023-07-13T11:28:30;23.70;99.90
8231;DHT22;4156;50.908;6.974;2023-07-13T11:31:19;23.70;99.90
8231;DHT22;4156;50.908;6.974;2023-07-13T11:34:13;23.70;99.90
8231;DHT22;4156;50.908;6.974;2023-07-13T11:36:44;23.70;99.90
8231;DHT22;4156;50.908;6.974;2023-07-13T11:39:37;23.70;99.90
8231;DHT22;4156;50.908;6.974;2023-07-13T11:42:13;23.70;99.90
8231;DHT22;4156;50.908;6.974;2023-07-13T11:44:47;23.70;99.90
8231;DHT22;4156;50.908;6.974;2023-07-13T11:47:18;23.70;99.90
8231;DHT22;4156;50.908;6.974;2023-07-13T11:49:54;23.70;99.90
8231;DHT22;4156;50.908;6.974;2023-07-13T11:52:35;23.70;99.90
8231;DHT22;4156;50.908;6.974;2023-07-13T11:55:08;23.80;99.90
8231;DHT22;4156;50.908;6.974;2023-07-13T11:57:45;23.70;99.90
8231;DHT22;4156;50.908;6.974;2023-07-13T12:00:38;23.70;99.90
8231;DHT22;4156;50.908;6.974;2023-07-13T12:10:30;23.80;99.90
8231;DHT22;4156;50.908;6.974;2023-07-13T12:13:03;23.80;99.90
8231;DHT22;4156;50.908;6.974;2023-07-13T12:15:39;23.80;99.90
8231;DHT22;4156;50.908;6.974;2023-07-13T12:18:14;23.80;99.90
8231;DHT22;4156;50.908;6.974;2023-07-13T12:20:41;23.80;99.90
8231;DHT22;4156;50.908;6.974;2023-07-13T12:23:28;23.80;99.90
8231;DHT22;4156;50.908;6.974;2023-07-13T12:25:57;23.80;99.90
8231;DHT22;4156;50.908;6.974;2023-07-13T12:28:39;23.80;99.90
8231;DHT22;4156;50.908;6.974;2023-07-13T12:31:46;23.80;99.90
8231;DHT22;4156;50.908;6.974;2023-07-13T12:34:16;23.80;99.90
8231;DHT22;4156;50.908;6.974;2023-07-13T12:36:54;23.80;99.90
8231;DHT22;4156;50.908;6.974;2023-07-13T12:39:28;23.80;99.90
8231;DHT22;4156;50.908;6.974;2023-07-13T12:44:41;23.80;99.90
8231;DHT22;4156;50.908;6.974;2023-07-13T12:47:13;23.90;99.90
8231;DHT22;4156;50.908;6.974;2023-07-13T12:49:53;23.90;99.90
8231;DHT22;4156;50.908;6.974;2023-07-13T12:52:27;23.90;99.90
8231;DHT22;4156;50.908;6.974;2023-07-13T12:54:58;23.90;99.90
8231;DHT22;4156;50.908;6.974;2023-07-13T12:57:25;23.90;99.90
8231;DHT22;4156;50.908;6.974;2023-07-13T12:59:53;23.90;99.90
8231;DHT22;4156;50.908;6.974;2023-07-13T13:02:29;23.90;99.90
8231;DHT22;4156;50.908;6.974;2023-07-13T13:04:57;23.90;99.90
8231;DHT22;4156;50.908;6.974;2023-07-13T13:07:25;23.90;99.90
8231;DHT22;4156;50.908;6.974;2023-07-13T13:09:51;23.90;99.90
8231;DHT22;4156;50.908;6.974;2023-07-13T13:12:19;23.90;99.90
8231;DHT22;4156;50.908;6.974;2023-07-13T13:14:46;24.00;99.90
8231;DHT22;4156;50.908;6.974;2023-07-13T13:17:22;24.00;99.90
8231;DHT22;4156;50.908;6.974;2023-07-13T13:19:50;24.00;99.90
8231;DHT22;4156;50.908;6.974;2023-07-13T13:22:20;24.00;99.90
8231;DHT22;4156;50.908;6.974;2023-07-13T13:24:47;24.00;99.90
8231;DHT22;4156;50.908;6.974;2023-07-13T13:27:22;24.00;99.90
8231;DHT22;4156;50.908;6.974;2023-07-13T13:29:51;24.00;99.90
8231;DHT22;4156;50.908;6.974;2023-07-13T13:32:17;24.00;99.90
8231;DHT22;4156;50.908;6.974;2023-07-13T13:34:44;24.00;99.90
8231;DHT22;4156;50.908;6.974;2023-07-13T13:37:22;24.00;99.90
8231;DHT22;4156;50.908;6.974;2023-07-13T13:39:51;24.00;99.90
8231;DHT22;4156;50.908;6.974;2023-07-13T13:42:18;24.10;99.90
8231;DHT22;4156;50.908;6.974;2023-07-13T13:44:46;24.10;99.90
8231;DHT22;4156;50.908;6.974;2023-07-13T13:47:32;24.10;99.90
8231;DHT22;4156;50.908;6.974;2023-07-13T13:50:00;24.10;99.90
8231;DHT22;4156;50.908;6.974;2023-07-13T13:52:28;24.10;99.90
8231;DHT22;4156;50.908;6.974;2023-07-13T13:54:55;24.10;99.90
8231;DHT22;4156;50.908;6.974;2023-07-13T13:57:24;24.10;99.90
8231;DHT22;4156;50.908;6.974;2023-07-13T13:59:51;24.10;99.90
8231;DHT22;4156;50.908;6.974;2023-07-13T14:02:25;24.10;99.90
8231;DHT22;4156;50.908;6.974;2023-07-13T14:04:59;24.10;99.90
8231;DHT22;4156;50.908;6.974;2023-07-13T14:07:33;24.10;99.90
8231;DHT22;4156;50.908;6.974;2023-07-13T14:10:00;24.20;99.90
8231;DHT22;4156;50.908;6.974;2023-07-13T14:12:27;24.20;99.90
8231;DHT22;4156;50.908;6.974;2023-07-13T14:14:56;24.20;99.90
8231;DHT22;4156;50.908;6.974;2023-07-13T14:17:25;24.20;99.90
8231;DHT22;4156;50.908;6.974;2023-07-13T14:19:54;24.20;99.90
8231;DHT22;4156;50.908;6.974;2023-07-13T14:22:25;24.20;99.90
8231;DHT22;4156;50.908;6.974;2023-07-13T14:24:54;24.20;99.90
8231;DHT22;4156;50.908;6.974;2023-07-13T14:27:22;24.20;99.90
8231;DHT22;4156;50.908;6.974;2023-07-13T14:29:50;24.20;99.90
8231;DHT22;4156;50.908;6.974;2023-07-13T14:32:16;24.20;99.90
8231;DHT22;4156;50.908;6.974;2023-07-13T14:34:42;24.20;99.90
8231;DHT22;4156;50.908;6.974;2023-07-13T14:37:14;24.20;99.90
8231;DHT22;4156;50.908;6.974;2023-07-13T14:39:44;24.20;99.90
8231;DHT22;4156;50.908;6.974;2023-07-13T14:42:10;24.20;99.90
8231;DHT22;4156;50.908;6.974;2023-07-13T14:44:38;24.30;99.90
8231;DHT22;4156;50.908;6.974;2023-07-13T14:47:05;24.20;99.90
8231;DHT22;4156;50.908;6.974;2023-07-13T14:58:46;24.30;99.90
8231;DHT22;4156;50.908;6.974;2023-07-13T15:01:14;24.30;99.90
8231;DHT22;4156;50.908;6.974;2023-07-13T15:03:44;24.30;99.90
8231;DHT22;4156;50.908;6.974;2023-07-13T15:06:12;24.30;99.90
8231;DHT22;4156;50.908;6.974;2023-07-13T15:08:38;24.30;99.90
8231;DHT22;4156;50.908;6.974;2023-07-13T15:11:08;24.30;99.90
8231;DHT22;4156;50.908;6.974;2023-07-13T15:13:41;24.30;99.90
8231;DHT22;4156;50.908;6.974;2023-07-13T15:16:21;24.30;99.90
8231;DHT22;4156;50.908;6.974;2023-07-13T15:18:47;24.30;99.90
8231;DHT22;4156;50.908;6.974;2023-07-13T15:21:22;24.30;99.90
8231;DHT22;4156;50.908;6.974;2023-07-13T15:23:49;24.30;99.90
8231;DHT22;4156;50.908;6.974;2023-07-13T15:26:16;24.30;99.90
8231;DHT22;4156;50.908;6.974;2023-07-13T15:28:45;24.40;99.90
8231;DHT22;4156;50.908;6.974;2023-07-13T15:31:20;24.40;99.90
8231;DHT22;4156;50.908;6.974;2023-07-13T15:33:47;24.40;99.90
8231;DHT22;4156;50.908;6.974;2023-07-13T15:36:15;24.40;99.90
8231;DHT22;4156;50.908;6.974;2023-07-13T15:38:42;24.40;99.90
8231;DHT22;4156;50.908;6.974;2023-07-13T15:41:17;24.40;99.90
8231;DHT22;4156;50.908;6.974;2023-07-13T15:43:43;24.40;99.90
8231;DHT22;4156;50.908;6.974;2023-07-13T15:46:09;24.40;99.90
8231;DHT22;4156;50.908;6.974;2023-07-13T15:48:35;24.40;99.90
8231;DHT22;4156;50.908;6.974;2023-07-13T15:51:02;24.40;99.90
8231;DHT22;4156;50.908;6.974;2023-07-13T15:53:30;24.40;99.90
8231;DHT22;4156;50.908;6.974;2023-07-13T15:55:57;24.40;99.90
8231;DHT22;4156;50.908;6.974;2023-07-13T15:58:23;24.40;99.90
8231;DHT22;4156;50.908;6.974;2023-07-13T16:00:50;24.40;99.90
8231;DHT22;4156;50.908;6.974;2023-07-13T16:03:17;24.40;99.90
8231;DHT22;4156;50.908;6.974;2023-07-13T16:05:42;24.40;99.90
8231;DHT22;4156;50.908;6.974;2023-07-13T16:08:26;24.40;99.90
8231;DHT22;4156;50.908;6.974;2023-07-13T16:10:52;24.40;99.90
8231;DHT22;4156;50.908;6.974;2023-07-13T16:13:19;24.40;99.90
8231;DHT22;4156;50.908;6.974;2023-07-13T16:15:46;24.40;99.90
8231;DHT22;4156;50.908;6.974;2023-07-13T16:18:12;24.40;99.90
8231;DHT22;4156;50.908;6.974;2023-07-13T16:20:39;24.40;99.90
8231;DHT22;4156;50.908;6.974;2023-07-13T16:23:04;24.40;99.90
8231;DHT22;4156;50.908;6.974;2023-07-13T16:25:31;24.40;99.90
8231;DHT22;4156;50.908;6.974;2023-07-13T16:27:58;24.30;99.90
8231;DHT22;4156;50.908;6.974;2023-07-13T16:30:27;24.30;99.90
8231;DHT22;4156;50.908;6.974;2023-07-13T16:32:55;24.30;99.90
8231;DHT22;4156;50.908;6.974;2023-07-13T16:35:24;24.40;99.90
8231;DHT22;4156;50.908;6.974;2023-07-13T16:37:51;24.50;99.90
8231;DHT22;4156;50.908;6.974;2023-07-13T16:40:29;24.60;99.90
8231;DHT22;4156;50.908;6.974;2023-07-13T16:42:56;24.70;99.90
8231;DHT22;4156;50.908;6.974;2023-07-13T16:45:32;24.70;99.90
8231;DHT22;4156;50.908;6.974;2023-07-13T16:48:05;24.70;99.90
8231;DHT22;4156;50.908;6.974;2023-07-13T16:50:35;24.70;99.90
8231;DHT22;4156;50.908;6.974;2023-07-13T16:53:01;24.70;99.90